sensor_id;sensor_type;location;lat;lon;timestamp;pressure;altitude;pressure_sealevel;temperature;humidity
6194;BME280;3130;41.564;23.280;2022-12-07T00:01:17;99020.91;;;9.41;83.29
6194;BME280;3130;41.564;23.280;2022-12-07T00:03:45;99031.47;;;9.35;82.87
6194;BME280;3130;41.564;23.280;2022-12-07T00:06:15;99027.16;;;9.35;83.42
6194;BME280;3130;41.564;23.280;2022-12-07T00:08:43;99015.97;;;9.38;83.36
6194;BME280;3130;41.564;23.280;2022-12-07T00:11:13;99020.41;;;9.34;83.21
6194;BME280;3130;41.564;23.280;2022-12-07T00:13:41;99016.28;;;9.32;83.08
6194;BME280;3130;41.564;23.280;2022-12-07T00:16:10;98956.69;;;8.99;83.47
6194;BME280;3130;41.564;23.280;2022-12-07T00:18:37;99025.34;;;9.37;82.73
6194;BME280;3130;41.564;23.280;2022-12-07T00:21:08;99017.84;;;9.34;82.59
6194;BME280;3130;41.564;23.280;2022-12-07T00:23:36;99012.81;;;9.33;83.04
6194;BME280;3130;41.564;23.280;2022-12-07T00:26:05;99011.25;;;9.30;82.93
6194;BME280;3130;41.564;23.280;2022-12-07T00:28:33;99015.13;;;9.37;83.02
6194;BME280;3130;41.564;23.280;2022-12-07T00:31:02;99018.19;;;9.44;nan
6194;BME280;3130;41.564;23.280;2022-12-07T00:33:29;99007.78;;;9.47;83.02
6194;BME280;3130;41.564;23.280;2022-12-07T00:35:56;99016.38;;;9.61;83.95
6194;BME280;3130;41.564;23.280;2022-12-07T00:38:24;99019.41;;;9.68;83.32
6194;BME280;3130;41.564;23.280;2022-12-07T00:40:55;99019.00;;;9.75;82.73
6194;BME280;3130;41.564;23.280;2022-12-07T00:43:22;99016.13;;;9.81;82.85
6194;BME280;3130;41.564;23.280;2022-12-07T00:45:51;99007.94;;;9.75;82.11
6194;BME280;3130;41.564;23.280;2022-12-07T00:48:18;99008.66;;;9.77;82.34
6194;BME280;3130;41.564;23.280;2022-12-07T00:50:45;99014.69;;;9.76;83.82
6194;BME280;3130;41.564;23.280;2022-12-07T00:53:12;99014.78;;;9.74;85.02
6194;BME280;3130;41.564;23.280;2022-12-07T00:55:39;99007.28;;;9.71;86.08
6194;BME280;3130;41.564;23.280;2022-12-07T00:58:07;99014.41;;;9.66;87.56
6194;BME280;3130;41.564;23.280;2022-12-07T01:00:36;99007.44;;;9.68;87.84
6194;BME280;3130;41.564;23.280;2022-12-07T01:03:06;99001.59;;;9.66;88.31
6194;BME280;3130;41.564;23.280;2022-12-07T01:05:34;99004.06;;;9.68;88.59
6194;BME280;3130;41.564;23.280;2022-12-07T01:08:02;99009.09;;;9.69;88.91
6194;BME280;3130;41.564;23.280;2022-12-07T01:10:29;99002.25;;;9.70;89.24
6194;BME280;3130;41.564;23.280;2022-12-07T01:12:57;99009.41;;;9.79;89.20
6194;BME280;3130;41.564;23.280;2022-12-07T01:15:24;98998.41;;;9.77;89.19
6194;BME280;3130;41.564;23.280;2022-12-07T01:17:51;99006.63;;;9.83;89.76
6194;BME280;3130;41.564;23.280;2022-12-07T01:20:21;99004.88;;;9.84;89.02
6194;BME280;3130;41.564;23.280;2022-12-07T01:22:48;99006.41;;;9.86;89.49
6194;BME280;3130;41.564;23.280;2022-12-07T01:25:15;99004.44;;;9.91;89.65
6194;BME280;3130;41.564;23.280;2022-12-07T01:27:42;99003.63;;;9.91;89.79
6194;BME280;3130;41.564;23.280;2022-12-07T01:30:10;99001.88;;;9.91;89.98
6194;BME280;3130;41.564;23.280;2022-12-07T01:32:38;99010.56;;;9.89;90.18
6194;BME280;3130;41.564;23.280;2022-12-07T01:35:05;99003.63;;;9.91;90.38
6194;BME280;3130;41.564;23.280;2022-12-07T01:37:35;98999.16;;;9.94;90.36
6194;BME280;3130;41.564;23.280;2022-12-07T01:40:03;98992.81;;;10.01;90.70
6194;BME280;3130;41.564;23.280;2022-12-07T01:42:30;98978.00;;;9.91;90.33
6194;BME280;3130;41.564;23.280;2022-12-07T01:45:36;98991.06;;;10.02;90.67
6194;BME280;3130;41.564;23.280;2022-12-07T01:48:05;98985.19;;;10.00;90.58
6194;BME280;3130;41.564;23.280;2022-12-07T01:50:33;98973.88;;;9.88;90.33
6194;BME280;3130;41.564;23.280;2022-12-07T01:53:05;98974.72;;;9.89;90.54
6194;BME280;3130;41.564;23.280;2022-12-07T01:55:34;98971.47;;;9.85;91.25
6194;BME280;3130;41.564;23.280;2022-12-07T01:58:04;98977.34;;;9.87;90.76
6194;BME280;3130;41.564;23.280;2022-12-07T02:00:31;98888.19;;;9.35;91.08
6194;BME280;3130;41.564;23.280;2022-12-07T02:03:03;98970.25;;;9.77;91.50
6194;BME280;3130;41.564;23.280;2022-12-07T02:05:32;98914.56;;;9.51;91.73
6194;BME280;3130;41.564;23.280;2022-12-07T02:08:03;98951.91;;;9.84;92.05
6194;BME280;3130;41.564;23.280;2022-12-07T02:10:31;98957.69;;;9.88;91.64
6194;BME280;3130;41.564;23.280;2022-12-07T02:13:02;98953.75;;;9.82;91.25
6194;BME280;3130;41.564;23.280;2022-12-07T02:15:38;98940.78;;;9.70;91.39
6194;BME280;3130;41.564;23.280;2022-12-07T02:18:13;98945.75;;;9.73;91.32
6194;BME280;3130;41.564;23.280;2022-12-07T02:20:47;98940.97;;;9.67;91.94
6194;BME280;3130;41.564;23.280;2022-12-07T02:23:39;98943.69;;;9.64;91.53
6194;BME280;3130;41.564;23.280;2022-12-07T02:26:23;98947.31;;;9.60;91.92
6194;BME280;3130;41.564;23.280;2022-12-07T02:31:56;98910.63;;;9.45;92.37
6194;BME280;3130;41.564;23.280;2022-12-07T02:34:31;98931.16;;;9.59;92.52
6194;BME280;3130;41.564;23.280;2022-12-07T02:37:02;98912.44;;;9.43;92.32
6194;BME280;3130;41.564;23.280;2022-12-07T02:39:39;98934.41;;;9.47;92.33
6194;BME280;3130;41.564;23.280;2022-12-07T02:42:13;98916.59;;;9.30;92.90
6194;BME280;3130;41.564;23.280;2022-12-07T02:44:44;98920.88;;;9.30;93.24
6194;BME280;3130;41.564;23.280;2022-12-07T02:47:15;98928.53;;;9.30;92.66
6194;BME280;3130;41.564;23.280;2022-12-07T02:49:43;98874.50;;;8.90;92.87
6194;BME280;3130;41.564;23.280;2022-12-07T02:52:11;98868.16;;;8.81;93.03
6194;BME280;3130;41.564;23.280;2022-12-07T02:54:38;98923.94;;;9.05;94.02
6194;BME280;3130;41.564;23.280;2022-12-07T02:57:14;98924.25;;;8.99;94.02
6194;BME280;3130;41.564;23.280;2022-12-07T02:59:55;98914.94;;;8.83;94.25
6194;BME280;3130;41.564;23.280;2022-12-07T03:02:32;98931.50;;;8.92;94.75
6194;BME280;3130;41.564;23.280;2022-12-07T03:07:54;98916.09;;;8.78;94.38
6194;BME280;3130;41.564;23.280;2022-12-07T03:10:35;98923.66;;;8.79;94.32
6194;BME280;3130;41.564;23.280;2022-12-07T03:13:11;98918.28;;;8.84;94.38
6194;BME280;3130;41.564;23.280;2022-12-07T03:15:44;98915.69;;;8.85;94.63
6194;BME280;3130;41.564;23.280;2022-12-07T03:18:16;98907.81;;;8.88;94.37
6194;BME280;3130;41.564;23.280;2022-12-07T03:20:45;98897.19;;;8.80;94.31
6194;BME280;3130;41.564;23.280;2022-12-07T03:23:17;98909.72;;;8.85;94.26
6194;BME280;3130;41.564;23.280;2022-12-07T03:25:47;98909.97;;;8.80;94.11
6194;BME280;3130;41.564;23.280;2022-12-07T03:28:18;98914.25;;;8.80;94.34
6194;BME280;3130;41.564;23.280;2022-12-07T03:30:50;98918.28;;;8.84;94.48
6194;BME280;3130;41.564;23.280;2022-12-07T03:33:22;98918.78;;;8.90;94.46
6194;BME280;3130;41.564;23.280;2022-12-07T03:35:55;98915.00;;;8.97;94.62
6194;BME280;3130;41.564;23.280;2022-12-07T03:38:31;98913.84;;;9.02;94.66
6194;BME280;3130;41.564;23.280;2022-12-07T03:41:01;98909.22;;;9.09;94.96
6194;BME280;3130;41.564;23.280;2022-12-07T03:43:31;98885.66;;;9.04;94.93
6194;BME280;3130;41.564;23.280;2022-12-07T03:46:07;98878.22;;;8.99;94.26
6194;BME280;3130;41.564;23.280;2022-12-07T03:48:40;98905.59;;;9.13;94.09
6194;BME280;3130;41.564;23.280;2022-12-07T03:51:13;98915.84;;;9.28;94.09
6194;BME280;3130;41.564;23.280;2022-12-07T03:53:47;98912.19;;;9.32;93.91
6194;BME280;3130;41.564;23.280;2022-12-07T03:56:17;98916.16;;;9.38;94.07
6194;BME280;3130;41.564;23.280;2022-12-07T03:58:45;98909.03;;;9.43;93.91
6194;BME280;3130;41.564;23.280;2022-12-07T04:01:14;98902.19;;;9.43;93.56
6194;BME280;3130;41.564;23.280;2022-12-07T04:03:41;98908.88;;;9.46;93.36
6194;BME280;3130;41.564;23.280;2022-12-07T04:06:08;98907.38;;;9.42;93.91
6194;BME280;3130;41.564;23.280;2022-12-07T04:08:35;98910.63;;;9.45;93.97
6194;BME280;3130;41.564;23.280;2022-12-07T04:11:02;98903.50;;;9.50;93.42
6194;BME280;3130;41.564;23.280;2022-12-07T04:13:29;98904.16;;;9.54;93.93
6194;BME280;3130;41.564;23.280;2022-12-07T04:16:17;98897.88;;;9.59;93.78
6194;BME280;3130;41.564;23.280;2022-12-07T04:18:44;98902.34;;;9.56;93.94
6194;BME280;3130;41.564;23.280;2022-12-07T04:21:12;98900.03;;;9.51;93.86
6194;BME280;3130;41.564;23.280;2022-12-07T04:23:39;98892.22;;;9.39;94.05
6194;BME280;3130;41.564;23.280;2022-12-07T04:26:06;98901.56;;;9.40;94.60
6194;BME280;3130;41.564;23.280;2022-12-07T04:28:33;98895.50;;;9.41;94.96
6194;BME280;3130;41.564;23.280;2022-12-07T04:31:00;98904.00;;;9.57;95.16
6194;BME280;3130;41.564;23.280;2022-12-07T04:33:28;98894.09;;;9.51;94.95
6194;BME280;3130;41.564;23.280;2022-12-07T04:35:55;98903.25;;;9.55;94.66
6194;BME280;3130;41.564;23.280;2022-12-07T04:38:22;98897.41;;;9.53;94.68
6194;BME280;3130;41.564;23.280;2022-12-07T04:40:49;98898.31;;;9.52;94.76
6194;BME280;3130;41.564;23.280;2022-12-07T04:43:16;98889.03;;;9.49;94.81
6194;BME280;3130;41.564;23.280;2022-12-07T04:45:46;98885.50;;;9.52;94.59
6194;BME280;3130;41.564;23.280;2022-12-07T04:48:13;98883.44;;;9.58;94.68
6194;BME280;3130;41.564;23.280;2022-12-07T04:50:42;98886.72;;;9.60;94.78
6194;BME280;3130;41.564;23.280;2022-12-07T04:53:09;98886.72;;;9.60;94.68
6194;BME280;3130;41.564;23.280;2022-12-07T04:55:36;98874.09;;;9.57;94.89
6194;BME280;3130;41.564;23.280;2022-12-07T04:58:03;98891.31;;;9.69;94.41
6194;BME280;3130;41.564;23.280;2022-12-07T05:00:30;98886.28;;;9.68;94.21
6194;BME280;3130;41.564;23.280;2022-12-07T05:02:57;98888.50;;;9.74;94.19
6194;BME280;3130;41.564;23.280;2022-12-07T05:05:24;98886.03;;;9.72;94.01
6194;BME280;3130;41.564;23.280;2022-12-07T05:07:53;98893.69;;;9.72;94.01
6194;BME280;3130;41.564;23.280;2022-12-07T05:10:20;98887.94;;;9.69;93.95
6194;BME280;3130;41.564;23.280;2022-12-07T05:12:48;98880.59;;;9.63;93.66
6194;BME280;3130;41.564;23.280;2022-12-07T05:15:15;98893.13;;;9.67;93.98
6194;BME280;3130;41.564;23.280;2022-12-07T05:17:43;98885.38;;;9.69;93.63
6194;BME280;3130;41.564;23.280;2022-12-07T05:20:11;98888.84;;;9.68;93.03
6194;BME280;3130;41.564;23.280;2022-12-07T05:22:38;98884.06;;;9.62;92.72
6194;BME280;3130;41.564;23.280;2022-12-07T05:25:07;98894.75;;;9.54;92.94
6194;BME280;3130;41.564;23.280;2022-12-07T05:27:35;98896.50;;;9.54;93.91
6194;BME280;3130;41.564;23.280;2022-12-07T05:30:02;98871.91;;;9.36;94.10
6194;BME280;3130;41.564;23.280;2022-12-07T05:32:29;98902.94;;;9.45;94.16
6194;BME280;3130;41.564;23.280;2022-12-07T05:34:56;98876.25;;;9.20;94.42
6194;BME280;3130;41.564;23.280;2022-12-07T05:37:23;98903.28;;;9.24;95.02
6194;BME280;3130;41.564;23.280;2022-12-07T05:39:50;98841.00;;;8.79;95.39
6194;BME280;3130;41.564;23.280;2022-12-07T05:42:19;98904.78;;;9.12;96.06
6194;BME280;3130;41.564;23.280;2022-12-07T05:44:46;98908.06;;;9.14;96.39
6194;BME280;3130;41.564;23.280;2022-12-07T05:47:14;98903.91;;;9.13;96.32
6194;BME280;3130;41.564;23.280;2022-12-07T05:49:41;98906.44;;;9.13;96.37
6194;BME280;3130;41.564;23.280;2022-12-07T05:52:08;98856.28;;;8.80;95.88
6194;BME280;3130;41.564;23.280;2022-12-07T05:54:35;98911.03;;;9.07;95.85
6194;BME280;3130;41.564;23.280;2022-12-07T05:57:02;98910.28;;;9.05;96.16
6194;BME280;3130;41.564;23.280;2022-12-07T05:59:31;98910.56;;;9.00;95.93
6194;BME280;3130;41.564;23.280;2022-12-07T06:01:58;98911.56;;;8.98;95.84
6194;BME280;3130;41.564;23.280;2022-12-07T06:04:27;98902.47;;;8.93;95.80
6194;BME280;3130;41.564;23.280;2022-12-07T06:06:55;98898.34;;;8.90;95.93
6194;BME280;3130;41.564;23.280;2022-12-07T06:09:23;98904.34;;;8.89;96.01
6194;BME280;3130;41.564;23.280;2022-12-07T06:11:51;98889.94;;;8.73;95.92
6194;BME280;3130;41.564;23.280;2022-12-07T06:14:37;98910.03;;;8.79;96.25
6194;BME280;3130;41.564;23.280;2022-12-07T06:17:05;98885.38;;;8.62;96.27
6194;BME280;3130;41.564;23.280;2022-12-07T06:19:33;98915.56;;;8.71;96.54
6194;BME280;3130;41.564;23.280;2022-12-07T06:22:00;98916.78;;;8.64;96.53
6194;BME280;3130;41.564;23.280;2022-12-07T06:24:28;98920.16;;;8.65;96.68
6194;BME280;3130;41.564;23.280;2022-12-07T06:26:55;98919.41;;;8.63;96.72
6194;BME280;3130;41.564;23.280;2022-12-07T06:29:22;98917.84;;;8.60;96.86
6194;BME280;3130;41.564;23.280;2022-12-07T06:31:50;98922.06;;;8.61;97.01
6194;BME280;3130;41.564;23.280;2022-12-07T06:34:20;98828.69;;;8.06;96.66
6194;BME280;3130;41.564;23.280;2022-12-07T06:36:48;98914.31;;;8.63;96.99
6194;BME280;3130;41.564;23.280;2022-12-07T06:39:17;98904.25;;;8.60;97.06
6194;BME280;3130;41.564;23.280;2022-12-07T06:41:45;98908.28;;;8.64;97.06
6194;BME280;3130;41.564;23.280;2022-12-07T06:44:12;98934.47;;;8.84;96.93
6194;BME280;3130;41.564;23.280;2022-12-07T06:46:39;98929.13;;;8.89;96.88
6194;BME280;3130;41.564;23.280;2022-12-07T06:49:07;98907.56;;;8.77;96.79
6194;BME280;3130;41.564;23.280;2022-12-07T06:51:35;98937.28;;;8.95;96.69
6194;BME280;3130;41.564;23.280;2022-12-07T06:54:06;98907.25;;;8.83;96.80
6194;BME280;3130;41.564;23.280;2022-12-07T06:56:33;98938.13;;;9.11;97.11
6194;BME280;3130;41.564;23.280;2022-12-07T06:59:00;98864.28;;;8.74;97.24
6194;BME280;3130;41.564;23.280;2022-12-07T07:01:27;98940.75;;;9.25;96.99
6194;BME280;3130;41.564;23.280;2022-12-07T07:03:54;98933.75;;;9.28;96.28
6194;BME280;3130;41.564;23.280;2022-12-07T07:06:23;98934.16;;;9.36;96.17
6194;BME280;3130;41.564;23.280;2022-12-07T07:08:50;98927.22;;;9.38;95.72
6194;BME280;3130;41.564;23.280;2022-12-07T07:11:17;98933.78;;;9.58;95.86
6194;BME280;3130;41.564;23.280;2022-12-07T07:13:44;98945.00;;;9.71;95.82
6194;BME280;3130;41.564;23.280;2022-12-07T07:16:12;98935.88;;;9.81;95.00
6194;BME280;3130;41.564;23.280;2022-12-07T07:18:39;98915.41;;;9.81;93.61
6194;BME280;3130;41.564;23.280;2022-12-07T07:21:06;98909.94;;;9.87;93.62
6194;BME280;3130;41.564;23.280;2022-12-07T07:23:35;98946.00;;;10.13;93.88
6194;BME280;3130;41.564;23.280;2022-12-07T07:26:02;98938.44;;;10.53;93.23
6194;BME280;3130;41.564;23.280;2022-12-07T07:28:29;98927.66;;;10.76;92.84
6194;BME280;3130;41.564;23.280;2022-12-07T07:30:57;98930.88;;;11.20;92.81
6194;BME280;3130;41.564;23.280;2022-12-07T07:33:24;98896.09;;;11.28;90.95
6194;BME280;3130;41.564;23.280;2022-12-07T07:35:51;98920.72;;;12.10;88.95
6194;BME280;3130;41.564;23.280;2022-12-07T07:38:18;98920.31;;;12.28;86.88
6194;BME280;3130;41.564;23.280;2022-12-07T07:40:47;98900.47;;;12.43;85.34
6194;BME280;3130;41.564;23.280;2022-12-07T07:43:14;98942.19;;;13.21;84.88
6194;BME280;3130;41.564;23.280;2022-12-07T07:45:41;98934.25;;;13.71;81.65
6194;BME280;3130;41.564;23.280;2022-12-07T07:48:09;98936.66;;;13.61;79.62
6194;BME280;3130;41.564;23.280;2022-12-07T07:50:36;98947.91;;;13.84;79.88
6194;BME280;3130;41.564;23.280;2022-12-07T07:53:03;98925.81;;;14.37;77.37
6194;BME280;3130;41.564;23.280;2022-12-07T07:55:30;98939.31;;;14.41;75.42
6194;BME280;3130;41.564;23.280;2022-12-07T07:57:58;98952.34;;;13.82;75.04
6194;BME280;3130;41.564;23.280;2022-12-07T08:00:25;98874.16;;;12.88;75.95
6194;BME280;3130;41.564;23.280;2022-12-07T08:02:52;98920.94;;;12.69;77.32
6194;BME280;3130;41.564;23.280;2022-12-07T08:05:20;98942.97;;;12.48;78.64
6194;BME280;3130;41.564;23.280;2022-12-07T08:07:47;98936.78;;;12.26;79.87
6194;BME280;3130;41.564;23.280;2022-12-07T08:10:14;98943.22;;;12.06;80.64
6194;BME280;3130;41.564;23.280;2022-12-07T08:12:42;98942.69;;;11.89;81.71
6194;BME280;3130;41.564;23.280;2022-12-07T08:15:30;98933.16;;;11.65;82.33
6194;BME280;3130;41.564;23.280;2022-12-07T08:17:58;98932.09;;;11.55;83.54
6194;BME280;3130;41.564;23.280;2022-12-07T08:20:25;98929.94;;;11.61;84.08
6194;BME280;3130;41.564;23.280;2022-12-07T08:22:52;98819.59;;;11.21;84.62
6194;BME280;3130;41.564;23.280;2022-12-07T08:25:20;98919.38;;;11.92;84.27
6194;BME280;3130;41.564;23.280;2022-12-07T08:27:47;98920.16;;;11.93;83.73
6194;BME280;3130;41.564;23.280;2022-12-07T08:30:14;98923.09;;;12.01;83.99
6194;BME280;3130;41.564;23.280;2022-12-07T08:32:44;98922.84;;;12.03;83.10
6194;BME280;3130;41.564;23.280;2022-12-07T08:35:11;98929.41;;;11.95;83.28
6194;BME280;3130;41.564;23.280;2022-12-07T08:37:39;98930.97;;;11.98;83.22
6194;BME280;3130;41.564;23.280;2022-12-07T08:40:08;98896.25;;;11.92;82.86
6194;BME280;3130;41.564;23.280;2022-12-07T08:42:35;98911.56;;;12.06;82.64
6194;BME280;3130;41.564;23.280;2022-12-07T08:45:06;98905.38;;;12.08;82.13
6194;BME280;3130;41.564;23.280;2022-12-07T08:47:34;98908.91;;;12.32;82.26
6194;BME280;3130;41.564;23.280;2022-12-07T08:50:04;98901.81;;;12.36;81.64
6194;BME280;3130;41.564;23.280;2022-12-07T08:52:33;98924.84;;;12.62;80.90
6194;BME280;3130;41.564;23.280;2022-12-07T08:55:01;98901.19;;;12.57;79.70
6194;BME280;3130;41.564;23.280;2022-12-07T08:57:30;98918.50;;;12.55;79.19
6194;BME280;3130;41.564;23.280;2022-12-07T08:59:59;98913.75;;;12.49;79.14
6194;BME280;3130;41.564;23.280;2022-12-07T09:02:26;98871.59;;;12.14;79.15
6194;BME280;3130;41.564;23.280;2022-12-07T09:04:53;98916.84;;;12.42;79.20
6194;BME280;3130;41.564;23.280;2022-12-07T09:07:21;98908.28;;;12.41;79.23
6194;BME280;3130;41.564;23.280;2022-12-07T09:09:48;98872.91;;;12.20;79.90
6194;BME280;3130;41.564;23.280;2022-12-07T09:12:16;98905.44;;;12.46;79.75
6194;BME280;3130;41.564;23.280;2022-12-07T09:14:43;98905.50;;;12.44;78.88
6194;BME280;3130;41.564;23.280;2022-12-07T09:17:11;98905.72;;;12.41;78.33
6194;BME280;3130;41.564;23.280;2022-12-07T09:19:39;98905.19;;;12.49;79.29
6194;BME280;3130;41.564;23.280;2022-12-07T09:22:08;98896.47;;;12.51;78.49
6194;BME280;3130;41.564;23.280;2022-12-07T09:24:36;98878.66;;;12.48;79.16
6194;BME280;3130;41.564;23.280;2022-12-07T09:27:03;98888.41;;;12.68;78.86
6194;BME280;3130;41.564;23.280;2022-12-07T09:29:30;98881.44;;;12.70;78.46
6194;BME280;3130;41.564;23.280;2022-12-07T09:31:57;98882.84;;;12.74;78.02
6194;BME280;3130;41.564;23.280;2022-12-07T09:34:24;98863.63;;;12.67;77.86
6194;BME280;3130;41.564;23.280;2022-12-07T09:36:52;98887.56;;;12.80;77.38
6194;BME280;3130;41.564;23.280;2022-12-07T09:39:19;98878.00;;;12.82;77.16
6194;BME280;3130;41.564;23.280;2022-12-07T09:41:47;98869.00;;;12.88;77.48
6194;BME280;3130;41.564;23.280;2022-12-07T09:44:19;98863.28;;;12.84;76.84
6194;BME280;3130;41.564;23.280;2022-12-07T09:46:47;98846.53;;;12.66;76.57
6194;BME280;3130;41.564;23.280;2022-12-07T09:49:17;98873.06;;;12.79;76.57
6194;BME280;3130;41.564;23.280;2022-12-07T09:51:46;98867.19;;;12.77;76.90
6194;BME280;3130;41.564;23.280;2022-12-07T09:54:15;98834.41;;;12.56;77.25
6194;BME280;3130;41.564;23.280;2022-12-07T09:56:43;98763.81;;;12.24;77.57
6194;BME280;3130;41.564;23.280;2022-12-07T09:59:16;98751.97;;;12.21;78.10
6194;BME280;3130;41.564;23.280;2022-12-07T10:01:45;98848.97;;;12.80;78.26
6194;BME280;3130;41.564;23.280;2022-12-07T10:04:15;98845.06;;;12.87;77.76
6194;BME280;3130;41.564;23.280;2022-12-07T10:06:43;98842.56;;;12.98;77.68
6194;BME280;3130;41.564;23.280;2022-12-07T10:09:12;98843.66;;;13.07;78.39
6194;BME280;3130;41.564;23.280;2022-12-07T10:12:01;98837.38;;;13.10;78.32
6194;BME280;3130;41.564;23.280;2022-12-07T10:14:32;98818.25;;;13.02;77.68
6194;BME280;3130;41.564;23.280;2022-12-07T10:16:59;98827.28;;;13.07;77.34
6194;BME280;3130;41.564;23.280;2022-12-07T10:19:28;98814.53;;;13.06;77.69
6194;BME280;3130;41.564;23.280;2022-12-07T10:22:04;98815.34;;;13.07;77.95
6194;BME280;3130;41.564;23.280;2022-12-07T10:24:32;98757.00;;;12.71;77.99
6194;BME280;3130;41.564;23.280;2022-12-07T10:26:59;98804.63;;;13.12;78.30
6194;BME280;3130;41.564;23.280;2022-12-07T10:29:31;98809.38;;;13.29;78.18
6194;BME280;3130;41.564;23.280;2022-12-07T10:32:00;98747.84;;;13.14;77.78
6194;BME280;3130;41.564;23.280;2022-12-07T10:34:29;98765.75;;;13.50;77.88
6194;BME280;3130;41.564;23.280;2022-12-07T10:37:15;98791.72;;;13.92;76.30
6194;BME280;3130;41.564;23.280;2022-12-07T10:39:44;98799.50;;;14.03;75.35
6194;BME280;3130;41.564;23.280;2022-12-07T10:42:17;98792.56;;;14.04;74.36
6194;BME280;3130;41.564;23.280;2022-12-07T10:44:47;98794.34;;;14.03;73.24
6194;BME280;3130;41.564;23.280;2022-12-07T10:47:33;98792.72;;;14.13;73.20
6194;BME280;3130;41.564;23.280;2022-12-07T10:50:37;98792.72;;;14.13;71.97
6194;BME280;3130;41.564;23.280;2022-12-07T10:53:44;98785.34;;;14.19;71.75
6194;BME280;3130;41.564;23.280;2022-12-07T10:56:44;98783.25;;;14.13;70.90
6194;BME280;3130;41.564;23.280;2022-12-07T10:59:27;98778.22;;;14.23;70.86
6194;BME280;3130;41.564;23.280;2022-12-07T11:02:14;98760.03;;;14.24;71.20
6194;BME280;3130;41.564;23.280;2022-12-07T11:04:59;98765.28;;;14.34;70.61
6194;BME280;3130;41.564;23.280;2022-12-07T11:07:39;98759.56;;;14.30;70.75
6194;BME280;3130;41.564;23.280;2022-12-07T11:10:13;98738.47;;;14.25;71.35
6194;BME280;3130;41.564;23.280;2022-12-07T11:12:52;98690.84;;;14.07;71.22
6194;BME280;3130;41.564;23.280;2022-12-07T11:15:26;98748.50;;;14.61;71.18
6194;BME280;3130;41.564;23.280;2022-12-07T11:18:01;98739.28;;;14.68;70.74
6194;BME280;3130;41.564;23.280;2022-12-07T11:20:38;98695.94;;;14.62;70.58
6194;BME280;3130;41.564;23.280;2022-12-07T11:23:15;98729.69;;;15.02;71.03
6194;BME280;3130;41.564;23.280;2022-12-07T11:25:49;98733.34;;;14.99;70.28
6194;BME280;3130;41.564;23.280;2022-12-07T11:28:30;98723.81;;;15.00;70.34
6194;BME280;3130;41.564;23.280;2022-12-07T11:31:05;98718.81;;;14.98;69.95
6194;BME280;3130;41.564;23.280;2022-12-07T11:33:43;98713.03;;;14.95;70.39
6194;BME280;3130;41.564;23.280;2022-12-07T11:36:22;98711.44;;;15.14;70.74
6194;BME280;3130;41.564;23.280;2022-12-07T11:39:00;98701.44;;;15.20;70.00
6194;BME280;3130;41.564;23.280;2022-12-07T11:41:31;98703.41;;;15.28;69.81
6194;BME280;3130;41.564;23.280;2022-12-07T11:44:04;98704.97;;;15.40;69.64
6194;BME280;3130;41.564;23.280;2022-12-07T11:46:43;98698.63;;;15.44;69.73
6194;BME280;3130;41.564;23.280;2022-12-07T11:49:16;98713.25;;;15.34;70.35
6194;BME280;3130;41.564;23.280;2022-12-07T11:51:49;98658.47;;;14.99;70.20
6194;BME280;3130;41.564;23.280;2022-12-07T11:54:21;98695.41;;;15.31;70.03
6194;BME280;3130;41.564;23.280;2022-12-07T11:56:50;98683.59;;;15.28;70.25
6194;BME280;3130;41.564;23.280;2022-12-07T11:59:23;98616.50;;;14.86;70.76
6194;BME280;3130;41.564;23.280;2022-12-07T12:01:56;98688.63;;;15.30;70.51
6194;BME280;3130;41.564;23.280;2022-12-07T12:04:34;98676.00;;;15.16;70.77
6194;BME280;3130;41.564;23.280;2022-12-07T12:07:14;98676.00;;;15.16;71.51
6194;BME280;3130;41.564;23.280;2022-12-07T12:09:49;98656.75;;;15.09;71.34
6194;BME280;3130;41.564;23.280;2022-12-07T12:12:34;98665.44;;;15.08;71.68
6194;BME280;3130;41.564;23.280;2022-12-07T12:15:33;98655.13;;;15.08;71.83
6194;BME280;3130;41.564;23.280;2022-12-07T12:18:24;98633.94;;;14.94;72.05
6194;BME280;3130;41.564;23.280;2022-12-07T12:20:58;98656.44;;;15.03;72.81
6194;BME280;3130;41.564;23.280;2022-12-07T12:23:35;98657.78;;;14.97;73.18
6194;BME280;3130;41.564;23.280;2022-12-07T12:26:05;98627.84;;;14.74;73.45
6194;BME280;3130;41.564;23.280;2022-12-07T12:28:38;98661.28;;;14.76;73.96
6194;BME280;3130;41.564;23.280;2022-12-07T12:31:14;98657.31;;;14.72;74.66
6194;BME280;3130;41.564;23.280;2022-12-07T12:33:44;98661.63;;;14.71;74.63
6194;BME280;3130;41.564;23.280;2022-12-07T12:36:23;98656.38;;;14.62;75.10
6194;BME280;3130;41.564;23.280;2022-12-07T12:39:09;98657.00;;;14.54;75.37
6194;BME280;3130;41.564;23.280;2022-12-07T12:41:59;98634.53;;;14.34;75.75
6194;BME280;3130;41.564;23.280;2022-12-07T12:50:30;98642.50;;;14.42;77.46
6194;BME280;3130;41.564;23.280;2022-12-07T12:53:15;98661.03;;;14.47;77.09
6194;BME280;3130;41.564;23.280;2022-12-07T12:58:45;98664.78;;;14.32;77.65
6194;BME280;3130;41.564;23.280;2022-12-07T13:01:44;98638.72;;;14.15;78.10
6194;BME280;3130;41.564;23.280;2022-12-07T13:04:25;98652.06;;;14.20;78.50
6194;BME280;3130;41.564;23.280;2022-12-07T13:06:55;98608.81;;;14.02;78.32
6194;BME280;3130;41.564;23.280;2022-12-07T13:09:27;98646.63;;;14.34;78.08
6194;BME280;3130;41.564;23.280;2022-12-07T13:11:59;98644.16;;;14.43;78.51
6194;BME280;3130;41.564;23.280;2022-12-07T13:17:58;98642.16;;;14.67;77.84
6194;BME280;3130;41.564;23.280;2022-12-07T13:20:46;98634.72;;;14.85;77.10
6194;BME280;3130;41.564;23.280;2022-12-07T13:23:17;98630.41;;;14.95;77.03
6194;BME280;3130;41.564;23.280;2022-12-07T13:25:53;98637.28;;;15.05;76.35
6194;BME280;3130;41.564;23.280;2022-12-07T13:28:22;98633.41;;;15.11;76.28
6194;BME280;3130;41.564;23.280;2022-12-07T13:31:14;98615.69;;;15.06;76.52
6194;BME280;3130;41.564;23.280;2022-12-07T13:33:43;98636.03;;;15.20;76.26
6194;BME280;3130;41.564;23.280;2022-12-07T13:36:17;98635.16;;;15.10;76.07
6194;BME280;3130;41.564;23.280;2022-12-07T13:38:50;98637.97;;;15.07;76.20
6194;BME280;3130;41.564;23.280;2022-12-07T13:41:21;98640.47;;;15.09;76.14
6194;BME280;3130;41.564;23.280;2022-12-07T13:43:52;98630.69;;;14.92;76.17
6194;BME280;3130;41.564;23.280;2022-12-07T13:46:25;98634.31;;;14.89;76.29
6194;BME280;3130;41.564;23.280;2022-12-07T13:48:53;98629.31;;;14.88;77.20
6194;BME280;3130;41.564;23.280;2022-12-07T13:51:23;98635.25;;;14.88;77.56
6194;BME280;3130;41.564;23.280;2022-12-07T13:53:52;98632.13;;;14.85;77.63
6194;BME280;3130;41.564;23.280;2022-12-07T13:56:26;98641.38;;;14.87;77.65